OERK/RUH METAR and TAF weather

Enter ICAO airport designator
Station Type Date Time Source
OERK METAR 2020/04/05 15:00 UTC NOAA

OERK 051500Z 11010KT CAVOK 31/01 Q1017 NOSIG


Station Type Date Time Source
OERK Decoded METAR 2020/04/05 15:00 UTC NOAA

King Khaled International Airport, Saudi Arabia (OERK) 24-56N 046-43E 612M
Apr 05, 2020 - 11:00 AM EDT / 2020.04.05 1500 UTC
Wind: from the ESE (110 degrees) at 12 MPH (10 KT):0
Visibility: greater than 7 mile(s):0
Temperature: 87 F (31 C)
Dew Point: 33 F (1 C)
Relative Humidity: 14%
Pressure (altimeter): 30.03 in. Hg (1017 hPa)
ob: OERK 051500Z 11010KT CAVOK 31/01 Q1017 NOSIG
cycle: 15

Station Type Date Time Source
OERK TAF 2020/04/05 12:06 UTC NOAA

TAF OERK 051100Z 0512/0618 09015KT 7000 FEW040
TEMPO 0512/0520 4000 BLDU TS FEW030CB SCT040 SCT090
BECMG 0522/0600 18005KT
BECMG 0606/0608 13015KT

Example: see airport list